Terminal Aerodrome Forecast
Issued by NWS Cleveland, OH

Home | Current Version | Previous Version | Graphics & Text | Print | Product List | Glossary On
Versions: 1 2 3 4 5 6 7 8 9 10 11 12 13 14 15 16 17 18 19 20 21
123
FTUS41 KCLE 120533
TAFMFD
TAF
KMFD 120533Z 1206/1306 VRB04KT P6SM OVC035
      TEMPO 1207/1209 3SM -SN OVC025
     FM120900 28012G20KT 1 1/2SM -SN OVC012
     FM121200 31015G25KT 6SM -SHSN OVC025
     FM121600 30018G28KT P6SM OVC035=

USA.gov is the U.S. government's official web portal to all federal, state and local government web resources and services.